Summerhill, Pennsylvania
Current Conditions -  °F | °C
As of 11:54 AM on Sunday 23 Nov 2014 (Local Time) from KJST Reporting Station
Clear Clear  
Wind Chill: 56°   Ceiling: Unl
Heat Index: 56°   Visibility: 10mi
Dew Point: 38°   Wind: 5mph
Humidity: 51%   Direction: 180°S
Pressure: 30.04"   Gusts: NA
Location:  40.38°N, 78.76°W
Report Text: KJST 231654Z AUTO 18004KT 10SM CLR 13/03 A3004 RMK AO2 SLP176 T01330033
Loading
Personal Weather Stations






























Interactive Weather Map New forecast layout! Learn more

10-Day Weather Forecast

Advertisements
Track Severe Weather on mobile